Terminal Aerodrome Forecast
Issued by NWS

Home | Current Version | Previous Version | Text Only | Print | Product List | Glossary On
Versions: 1 2 3 4 5 6 7 8 9 10 11 12 13 14 15 16 17
000
FTUS46 KMFR 171132
TAFOTH
TAF
KOTH 171132Z 1712/1812 14005KT P6SM SCT035 BKN070
     FM172000 29006KT P6SM FEW040 BKN200
     FM180300 16005KT P6SM SCT012 OVC025
     FM180900 17005KT 4SM BR OVC012=

USA.gov is the U.S. government's official web portal to all federal, state and local government web resources and services.